createdAt,value
2022-10-01T00:00:40.547Z,98052.31
2022-10-01T00:04:05.879Z,98052.66
2022-10-01T00:07:15.194Z,98054.97
2022-10-01T00:10:19.677Z,98060.47
2022-10-01T00:13:24.474Z,98065.50
2022-10-01T00:16:30.898Z,98062.00
2022-10-01T00:19:36.517Z,98059.88
2022-10-01T00:22:41.362Z,98053.44
2022-10-01T00:25:45.504Z,98041.28
2022-10-01T00:28:54.073Z,98031.78
2022-10-01T00:31:59.871Z,98033.09
2022-10-01T00:35:10.097Z,98036.88
2022-10-01T00:38:15.594Z,98032.84
2022-10-01T00:41:39.512Z,98015.31
2022-10-01T00:44:44.827Z,98017.25
2022-10-01T00:47:56.724Z,98039.53
2022-10-01T00:51:03.069Z,98035.13
2022-10-01T00:54:13.076Z,98045.19
2022-10-01T00:57:20.941Z,98044.31
2022-10-01T01:00:25.285Z,98030.22
2022-10-01T01:03:31.740Z,98028.03
2022-10-01T01:06:38.101Z,98032.13
2022-10-01T01:09:47.952Z,98038.63
2022-10-01T01:13:07.658Z,98030.81
2022-10-01T01:16:20.353Z,98033.06
2022-10-01T01:19:40.501Z,98029.97
2022-10-01T01:22:57.670Z,98023.25
2022-10-01T01:26:13.928Z,98021.34
2022-10-01T01:29:25.224Z,98025.84
2022-10-01T01:32:34.188Z,98021.75
2022-10-01T01:35:44.158Z,98018.00
2022-10-01T01:39:11.038Z,98012.81
2022-10-01T01:42:20.267Z,98008.13
2022-10-01T01:45:31.475Z,98017.38
2022-10-01T01:48:39.250Z,98006.66
2022-10-01T01:51:50.747Z,98015.34
2022-10-01T01:54:57.676Z,98006.06
2022-10-01T01:58:02.591Z,98002.56
2022-10-01T02:01:08.411Z,98010.13
2022-10-01T02:04:22.079Z,98009.22
2022-10-01T02:07:55.805Z,98015.38
2022-10-01T02:11:21.630Z,98012.56
2022-10-01T02:14:36.842Z,98006.13
2022-10-01T02:17:51.816Z,98008.91
2022-10-01T02:21:02.477Z,98007.75
2022-10-01T02:24:14.615Z,98002.44
2022-10-01T02:27:50.301Z,98026.06
2022-10-01T02:31:10.265Z,98022.53
2022-10-01T02:34:20.376Z,98028.31
2022-10-01T02:37:27.807Z,98026.47
2022-10-01T02:40:42.296Z,98031.22
2022-10-01T02:43:53.455Z,98030.50
2022-10-01T02:47:04.054Z,98030.25
2022-10-01T02:50:12.916Z,98032.34
2022-10-01T02:53:42.906Z,98035.44
2022-10-01T02:57:10.070Z,98028.56
2022-10-01T03:00:17.161Z,98018.75
2022-10-01T03:03:21.253Z,98013.16
2022-10-01T03:06:28.103Z,97997.31
2022-10-01T03:09:32.495Z,98008.41
2022-10-01T03:12:36.745Z,98016.53
2022-10-01T03:15:40.365Z,98014.78
2022-10-01T03:18:44.196Z,98010.16
2022-10-01T03:21:51.529Z,98001.50
2022-10-01T03:24:55.197Z,97994.44
2022-10-01T03:28:29.875Z,97995.81
2022-10-01T03:31:48.587Z,97994.03
2022-10-01T03:34:59.262Z,97982.38
2022-10-01T03:38:04.418Z,97978.97
2022-10-01T03:41:08.527Z,97973.75
2022-10-01T03:44:13.851Z,97983.53
2022-10-01T03:47:18.913Z,97983.44
2022-10-01T03:50:22.837Z,97982.06
2022-10-01T03:53:30.527Z,97972.09
2022-10-01T03:56:35.439Z,97972.38
2022-10-01T03:59:39.370Z,97978.16
2022-10-01T04:02:43.346Z,97991.09
2022-10-01T04:05:47.455Z,97993.41
2022-10-01T04:08:52.928Z,97989.66
2022-10-01T04:11:56.551Z,97991.44
2022-10-01T04:15:10.189Z,97985.38
2022-10-01T04:18:21.637Z,98003.13
2022-10-01T04:21:25.384Z,97999.28
2022-10-01T04:24:30.314Z,98003.41
2022-10-01T04:27:34.177Z,98020.16
2022-10-01T04:30:40.859Z,98024.81
2022-10-01T04:33:45.031Z,98021.94
2022-10-01T04:37:15.116Z,98015.84
2022-10-01T04:40:40.346Z,98003.69
2022-10-01T04:43:45.191Z,97997.56
2022-10-01T04:46:49.403Z,97990.56
2022-10-01T04:49:54.619Z,97993.66
2022-10-01T04:52:58.564Z,97988.88
2022-10-01T04:56:03.717Z,97995.50
2022-10-01T04:59:07.503Z,97985.91
2022-10-01T05:02:11.555Z,97985.81
2022-10-01T05:05:15.977Z,97998.78
2022-10-01T05:08:19.849Z,97993.81
2022-10-01T05:11:26.084Z,97992.88
2022-10-01T05:14:31.614Z,97994.53
2022-10-01T05:17:36.597Z,97997.56
2022-10-01T05:20:40.835Z,98010.28
2022-10-01T05:23:45.723Z,98013.75
2022-10-01T05:26:54.524Z,98009.59
2022-10-01T05:29:59.476Z,98000.88
2022-10-01T05:33:06.982Z,97996.13
2022-10-01T05:36:12.483Z,97998.59
2022-10-01T05:39:17.882Z,98007.56
2022-10-01T05:42:23.973Z,98018.84
2022-10-01T05:45:30.337Z,98015.00
2022-10-01T05:48:37.883Z,98016.44
2022-10-01T05:51:41.755Z,98027.97
2022-10-01T05:54:46.177Z,98022.84
2022-10-01T05:57:58.879Z,98049.16
2022-10-01T06:01:04.346Z,98031.38
2022-10-01T06:04:08.506Z,98031.47
2022-10-01T06:07:13.433Z,98039.22
2022-10-01T06:10:17.606Z,98031.00
2022-10-01T06:13:23.230Z,98048.00
2022-10-01T06:16:26.906Z,98056.47
2022-10-01T06:19:31.147Z,98037.31
2022-10-01T06:22:35.026Z,98052.47
2022-10-01T06:25:41.869Z,98047.25
2022-10-01T06:28:50.048Z,98050.19
2022-10-01T06:31:55.043Z,98058.09
2022-10-01T06:34:58.623Z,98056.16
2022-10-01T06:38:03.275Z,98065.59
2022-10-01T06:41:07.470Z,98074.75
2022-10-01T06:44:12.550Z,98075.00
2022-10-01T06:47:16.094Z,98076.53
2022-10-01T06:50:19.867Z,98070.81
2022-10-01T06:53:23.420Z,98068.16
2022-10-01T06:56:27.162Z,98069.03
2022-10-01T06:59:32.657Z,98064.50
2022-10-01T07:02:37.110Z,98062.94
2022-10-01T07:05:43.218Z,98055.78
2022-10-01T07:08:51.769Z,98049.84
2022-10-01T07:11:57.456Z,98045.59
2022-10-01T07:15:03.083Z,98042.78
2022-10-01T07:18:09.672Z,98047.59
2022-10-01T07:21:13.532Z,98050.03
2022-10-01T07:24:17.003Z,98044.34
2022-10-01T07:27:21.195Z,98049.75
2022-10-01T07:30:26.900Z,98055.72
2022-10-01T07:33:31.249Z,98061.94
2022-10-01T07:36:34.682Z,98063.22
2022-10-01T07:39:38.440Z,98071.66
2022-10-01T07:42:41.929Z,98068.16
2022-10-01T07:45:47.802Z,98077.13
2022-10-01T07:48:51.372Z,98081.22
2022-10-01T07:51:55.998Z,98089.72
2022-10-01T07:54:59.408Z,98087.38
2022-10-01T07:58:03.262Z,98092.28
2022-10-01T08:01:09.727Z,98102.78
2022-10-01T08:04:30.737Z,98099.19
2022-10-01T08:07:35.760Z,98110.47
2022-10-01T08:10:39.985Z,98098.41
2022-10-01T08:13:44.035Z,98094.81
2022-10-01T08:16:49.486Z,98088.69
2022-10-01T08:19:53.242Z,98091.75
2022-10-01T08:23:02.873Z,98086.34
2022-10-01T08:26:08.598Z,98087.41
2022-10-01T08:29:16.958Z,98085.09
2022-10-01T08:32:23.395Z,98087.38
2022-10-01T08:35:28.148Z,98074.06
2022-10-01T08:38:31.561Z,98083.78
2022-10-01T08:41:46.155Z,98092.03
2022-10-01T08:44:52.829Z,98088.16
2022-10-01T08:48:04.949Z,98084.06
2022-10-01T08:51:13.423Z,98093.00
2022-10-01T08:54:28.718Z,98100.16
2022-10-01T08:57:38.298Z,98091.94
2022-10-01T09:00:46.317Z,98076.84
2022-10-01T09:03:52.099Z,98072.44
2022-10-01T09:07:05.498Z,98066.81
2022-10-01T09:10:25.763Z,98066.06
2022-10-01T09:13:50.268Z,98065.28
2022-10-01T09:17:03.524Z,98062.72
2022-10-01T09:20:17.789Z,98058.31
2022-10-01T09:23:28.235Z,98051.88
2022-10-01T09:26:32.947Z,98035.91
2022-10-01T09:29:43.019Z,98031.03
2022-10-01T09:32:53.395Z,98015.09
2022-10-01T09:36:08.882Z,98005.66
2022-10-01T09:39:20.151Z,98001.28
2022-10-01T09:42:28.481Z,97995.84
2022-10-01T09:45:32.620Z,97997.34
2022-10-01T09:48:41.977Z,97989.06
2022-10-01T09:51:53.664Z,97972.84
2022-10-01T09:55:01.076Z,97953.59
2022-10-01T09:58:12.823Z,97958.63
2022-10-01T10:01:29.810Z,97975.50
2022-10-01T10:04:33.917Z,97973.72
2022-10-01T10:07:39.817Z,97973.44
2022-10-01T10:10:52.265Z,97972.78
2022-10-01T10:14:00.175Z,97968.66
2022-10-01T10:17:08.236Z,97967.38
2022-10-01T10:20:22.534Z,97968.31
2022-10-01T10:23:29.379Z,97972.16
2022-10-01T10:26:35.622Z,97976.63
2022-10-01T10:29:39.620Z,97957.22
2022-10-01T10:32:45.714Z,97944.25
2022-10-01T10:35:59.274Z,97936.91
2022-10-01T10:39:06.147Z,97946.22
2022-10-01T10:42:16.397Z,97936.03
2022-10-01T10:45:23.765Z,97926.84
2022-10-01T10:48:33.049Z,97911.75
2022-10-01T10:51:54.091Z,97909.84
2022-10-01T10:55:01.160Z,97899.78
2022-10-01T10:58:12.419Z,97893.06
2022-10-01T11:01:20.183Z,97882.22
2022-10-01T11:04:39.405Z,97890.41
2022-10-01T11:07:46.447Z,97886.06
2022-10-01T11:11:04.833Z,97892.28
2022-10-01T11:14:23.912Z,97891.28
2022-10-01T11:17:58.689Z,97883.09
2022-10-01T11:21:22.292Z,97879.59
2022-10-01T11:24:46.179Z,97867.19
2022-10-01T11:28:04.794Z,97852.38
2022-10-01T11:31:19.770Z,97831.59
2022-10-01T11:34:42.601Z,97842.16
2022-10-01T11:37:59.928Z,97839.22
2022-10-01T11:41:16.275Z,97833.03
2022-10-01T11:44:30.733Z,97836.50
2022-10-01T11:47:41.333Z,97835.00
2022-10-01T11:50:49.403Z,97824.97
2022-10-01T11:53:58.124Z,97806.50
2022-10-01T11:57:23.456Z,97801.81
2022-10-01T12:00:29.429Z,97792.41
2022-10-01T12:03:41.347Z,97788.16
2022-10-01T12:06:54.655Z,97785.97
2022-10-01T12:10:08.773Z,97767.34
2022-10-01T12:13:22.788Z,97746.72
2022-10-01T12:16:40.500Z,97747.53
2022-10-01T12:19:48.040Z,97741.50
2022-10-01T12:22:54.351Z,97734.09
2022-10-01T12:26:09.158Z,97723.34
2022-10-01T12:29:19.279Z,97726.19
2022-10-01T12:32:34.066Z,97724.81
2022-10-01T12:35:55.596Z,97713.78
2022-10-01T12:39:15.247Z,97719.13
2022-10-01T12:42:36.730Z,97722.19
2022-10-01T12:45:49.772Z,97715.66
2022-10-01T12:49:05.107Z,97721.84
2022-10-01T12:52:18.204Z,97727.72
2022-10-01T12:55:34.326Z,97729.53
2022-10-01T12:58:54.399Z,97720.25
2022-10-01T13:02:16.384Z,97715.53
2022-10-01T13:05:33.038Z,97715.38
2022-10-01T13:08:52.685Z,97713.66
2022-10-01T13:12:15.108Z,97722.66
2022-10-01T13:15:23.323Z,97720.47
2022-10-01T13:18:36.597Z,97714.78
2022-10-01T13:21:58.960Z,97706.75
2022-10-01T13:25:22.847Z,97702.56
2022-10-01T13:28:34.270Z,97702.88
2022-10-01T13:31:41.459Z,97703.25
2022-10-01T13:34:46.178Z,97705.97
2022-10-01T13:37:51.619Z,97704.13
2022-10-01T13:40:59.881Z,97711.72
2022-10-01T13:44:15.060Z,97717.31
2022-10-01T13:47:21.241Z,97714.44
2022-10-01T13:50:26.503Z,97705.22
2022-10-01T13:53:34.768Z,97701.75
2022-10-01T13:56:39.256Z,97690.66
2022-10-01T13:59:43.920Z,97677.06
2022-10-01T14:03:02.520Z,97668.63
2022-10-01T14:06:14.284Z,97669.72
2022-10-01T14:09:25.781Z,97659.88
2022-10-01T14:12:49.715Z,97647.75
2022-10-01T14:16:01.409Z,97654.59
2022-10-01T14:19:09.750Z,97642.88
2022-10-01T14:22:24.963Z,97633.91
2022-10-01T14:25:53.662Z,97632.00
2022-10-01T14:29:08.251Z,97632.66
2022-10-01T14:32:26.840Z,97635.50
2022-10-01T14:35:33.579Z,97637.47
2022-10-01T14:38:37.162Z,97630.25
2022-10-01T14:41:46.342Z,97629.69
2022-10-01T14:44:50.418Z,97630.81
2022-10-01T14:48:02.763Z,97622.75
2022-10-01T14:51:08.427Z,97618.00
2022-10-01T14:54:13.330Z,97615.72
2022-10-01T14:57:29.845Z,97610.31
2022-10-01T15:00:35.917Z,97605.63
2022-10-01T15:03:43.108Z,97601.81
2022-10-01T15:06:48.130Z,97593.84
2022-10-01T15:09:51.833Z,97593.06
2022-10-01T15:12:57.657Z,97598.97
2022-10-01T15:16:03.967Z,97599.31
2022-10-01T15:19:10.550Z,97607.63
2022-10-01T15:22:16.471Z,97608.75
2022-10-01T15:25:24.172Z,97600.22
2022-10-01T15:28:31.863Z,97583.75
2022-10-01T15:31:36.268Z,97584.88
2022-10-01T15:34:41.870Z,97583.13
2022-10-01T15:37:50.259Z,97590.28
2022-10-01T15:41:14.007Z,97586.47
2022-10-01T15:44:46.051Z,97584.47
2022-10-01T15:47:51.798Z,97611.88
2022-10-01T15:51:01.466Z,97674.50
2022-10-01T15:54:10.036Z,97677.00
2022-10-01T15:57:20.289Z,97683.63
2022-10-01T16:00:28.031Z,97687.25
2022-10-01T16:03:35.180Z,97688.78
2022-10-01T16:06:42.887Z,97701.97
2022-10-01T16:09:53.926Z,97726.81
2022-10-01T16:12:57.423Z,97732.53
2022-10-01T16:16:19.678Z,97745.00
2022-10-01T16:19:25.495Z,97754.94
2022-10-01T16:22:33.056Z,97751.03
2022-10-01T16:25:45.286Z,97750.84
2022-10-01T16:28:54.546Z,97746.72
2022-10-01T16:32:02.726Z,97754.16
2022-10-01T16:35:21.681Z,97762.06
2022-10-01T16:38:25.316Z,97764.34
2022-10-01T16:41:30.608Z,97771.38
2022-10-01T16:44:35.540Z,97782.53
2022-10-01T16:47:41.773Z,97783.09
2022-10-01T16:50:46.894Z,97784.31
2022-10-01T16:53:50.766Z,97773.31
2022-10-01T16:56:55.447Z,97776.69
2022-10-01T16:59:59.315Z,97772.22
2022-10-01T17:03:06.206Z,97765.66
2022-10-01T17:06:09.936Z,97764.56
2022-10-01T17:09:13.549Z,97765.81
2022-10-01T17:12:17.704Z,97762.53
2022-10-01T17:15:23.499Z,97759.53
2022-10-01T17:18:29.386Z,97757.13
2022-10-01T17:21:35.118Z,97752.13
2022-10-01T17:24:38.932Z,97759.88
2022-10-01T17:27:42.685Z,97747.13
2022-10-01T17:30:48.757Z,97756.00
2022-10-01T17:33:53.529Z,97819.75
2022-10-01T17:36:59.824Z,97834.75
2022-10-01T17:40:03.943Z,97807.16
2022-10-01T17:43:07.836Z,97761.44
2022-10-01T17:46:11.282Z,97806.94
2022-10-01T17:49:16.620Z,97878.44
2022-10-01T17:52:20.024Z,97851.81
2022-10-01T17:55:23.943Z,97833.22
2022-10-01T17:58:27.949Z,97825.59
2022-10-01T18:01:32.748Z,97843.31
2022-10-01T18:04:43.213Z,97850.03
2022-10-01T18:07:46.983Z,97822.91
2022-10-01T18:10:50.498Z,97813.19
2022-10-01T18:13:57.478Z,97804.22
2022-10-01T18:17:19.844Z,97805.50
2022-10-01T18:20:25.731Z,97815.25
2022-10-01T18:23:29.301Z,97806.50
2022-10-01T18:26:33.942Z,97800.34
2022-10-01T18:29:38.878Z,97799.06
2022-10-01T18:32:46.802Z,97801.38
2022-10-01T18:35:58.014Z,97804.69
2022-10-01T18:39:11.551Z,97837.16
2022-10-01T18:42:20.372Z,97845.06
2022-10-01T18:45:41.340Z,97835.59
2022-10-01T18:49:02.875Z,97829.47
2022-10-01T18:52:18.839Z,97809.28
2022-10-01T18:55:54.625Z,97813.38
2022-10-01T18:59:29.284Z,97795.94
2022-10-01T19:03:10.974Z,97795.41
2022-10-01T19:06:59.230Z,97797.69
2022-10-01T19:10:17.219Z,97812.03
2022-10-01T19:13:29.097Z,97804.06
2022-10-01T19:16:43.341Z,97783.75
2022-10-01T19:20:01.759Z,97772.31
2022-10-01T19:23:31.131Z,97788.38
2022-10-01T19:26:44.778Z,97769.91
2022-10-01T19:30:02.458Z,97786.13
2022-10-01T19:33:10.998Z,97781.47
2022-10-01T19:36:23.076Z,97762.38
2022-10-01T19:39:31.557Z,97753.47
2022-10-01T19:42:39.799Z,97776.25
2022-10-01T19:45:52.874Z,97780.84
2022-10-01T19:49:01.961Z,97782.84
2022-10-01T19:52:13.656Z,97775.97
2022-10-01T19:55:20.707Z,97785.13
2022-10-01T19:58:26.089Z,97794.63
2022-10-01T20:01:38.929Z,97803.56
2022-10-01T20:04:52.355Z,97785.31
2022-10-01T20:08:02.265Z,97777.38
2022-10-01T20:11:15.143Z,97805.78
2022-10-01T20:14:50.497Z,97796.59
2022-10-01T20:18:13.585Z,97793.25
2022-10-01T20:21:31.656Z,97792.28
2022-10-01T20:24:49.264Z,97802.47
2022-10-01T20:28:05.513Z,97794.31
2022-10-01T20:31:18.324Z,97794.06
2022-10-01T20:34:31.172Z,97796.63
2022-10-01T20:37:51.987Z,97793.78
2022-10-01T20:40:58.359Z,97796.09
2022-10-01T20:44:09.729Z,97802.25
2022-10-01T20:47:23.187Z,97788.44
2022-10-01T20:50:32.573Z,97781.28
2022-10-01T20:53:41.949Z,97777.41
2022-10-01T20:57:01.024Z,97778.00
2022-10-01T21:00:09.203Z,97775.69
2022-10-01T21:03:25.275Z,97788.00
2022-10-01T21:06:37.178Z,97791.38
2022-10-01T21:09:45.186Z,97783.44
2022-10-01T21:12:59.199Z,97776.72
2022-10-01T21:16:17.894Z,97775.44
2022-10-01T21:19:34.072Z,97787.50
2022-10-01T21:22:54.615Z,97779.38
2022-10-01T21:26:06.814Z,97786.06
2022-10-01T21:29:30.390Z,97785.78
2022-10-01T21:33:01.936Z,97782.47
2022-10-01T21:36:34.332Z,97789.66
2022-10-01T21:39:48.756Z,97792.94
2022-10-01T21:43:01.864Z,97791.44
2022-10-01T21:46:16.330Z,97804.22
2022-10-01T21:49:32.208Z,97806.53
2022-10-01T21:52:45.589Z,97802.19
2022-10-01T21:56:03.766Z,97798.78
2022-10-01T21:59:17.053Z,97802.06
2022-10-01T22:02:33.934Z,97802.09
2022-10-01T22:05:45.019Z,97812.13
2022-10-01T22:09:14.389Z,97824.41
2022-10-01T22:12:18.833Z,97824.44
2022-10-01T22:15:29.832Z,97819.06
2022-10-01T22:18:37.503Z,97813.41
2022-10-01T22:21:44.927Z,97813.16
2022-10-01T22:24:52.235Z,97815.97
2022-10-01T22:28:02.540Z,97818.53
2022-10-01T22:31:10.239Z,97812.66
2022-10-01T22:34:18.555Z,97813.44
2022-10-01T22:37:28.082Z,97814.97
2022-10-01T22:40:40.459Z,97816.75
2022-10-01T22:43:45.767Z,97822.34
2022-10-01T22:47:08.642Z,97815.97
2022-10-01T22:50:35.163Z,97816.69
2022-10-01T22:53:52.999Z,97818.97
2022-10-01T22:57:11.675Z,97819.47
2022-10-01T23:00:16.878Z,97823.50
2022-10-01T23:03:28.842Z,97822.25
2022-10-01T23:06:38.940Z,97829.19
2022-10-01T23:09:50.697Z,97840.09
2022-10-01T23:13:05.536Z,97837.53
2022-10-01T23:16:16.824Z,97846.47
2022-10-01T23:19:39.787Z,97850.75
2022-10-01T23:23:01.301Z,97855.88
2022-10-01T23:26:30.812Z,97866.75
2022-10-01T23:29:56.469Z,97872.44
2022-10-01T23:33:23.108Z,97878.31
2022-10-01T23:36:35.637Z,97884.63
2022-10-01T23:39:48.433Z,97890.69
2022-10-01T23:43:00.812Z,97899.31
2022-10-01T23:46:13.068Z,97902.78
2022-10-01T23:49:18.574Z,97910.53
2022-10-01T23:52:31.073Z,97906.53
2022-10-01T23:56:01.451Z,97922.03
2022-10-01T23:59:14.086Z,97924.38
